sensor_id;sensor_type;location;lat;lon;timestamp;pressure;altitude;pressure_sealevel;temperature;humidity
22000;BME280;11164;48.818;2.322;2023-04-09T00:00:34;101365.16;;;12.82;33.67
22000;BME280;11164;48.818;2.322;2023-04-09T00:03:00;101352.28;;;12.84;33.57
22000;BME280;11164;48.818;2.322;2023-04-09T00:05:25;101352.81;;;12.72;33.85
22000;BME280;11164;48.818;2.322;2023-04-09T00:07:51;101349.66;;;12.69;33.72
22000;BME280;11164;48.818;2.322;2023-04-09T00:10:16;101351.81;;;12.80;33.76
22000;BME280;11164;48.818;2.322;2023-04-09T00:12:41;101348.84;;;12.75;33.78
22000;BME280;11164;48.818;2.322;2023-04-09T00:15:07;101351.78;;;12.73;33.81
22000;BME280;11164;48.818;2.322;2023-04-09T00:17:32;101354.94;;;12.77;34.02
22000;BME280;11164;48.818;2.322;2023-04-09T00:19:58;101352.69;;;12.81;33.85
22000;BME280;11164;48.818;2.322;2023-04-09T00:22:23;101346.38;;;12.73;34.09
22000;BME280;11164;48.818;2.322;2023-04-09T00:24:49;101343.06;;;12.78;33.96
22000;BME280;11164;48.818;2.322;2023-04-09T00:27:14;101343.25;;;12.76;33.97
22000;BME280;11164;48.818;2.322;2023-04-09T00:29:39;101343.06;;;12.78;33.98
22000;BME280;11164;48.818;2.322;2023-04-09T00:32:05;101337.75;;;12.63;33.94
22000;BME280;11164;48.818;2.322;2023-04-09T00:34:30;101339.91;;;12.74;34.01
22000;BME280;11164;48.818;2.322;2023-04-09T00:36:56;101330.94;;;12.96;33.74
22000;BME280;11164;48.818;2.322;2023-04-09T00:39:21;101333.66;;;12.96;33.66
22000;BME280;11164;48.818;2.322;2023-04-09T00:41:46;101335.16;;;12.98;33.68
22000;BME280;11164;48.818;2.322;2023-04-09T00:44:12;101338.09;;;13.03;33.60
22000;BME280;11164;48.818;2.322;2023-04-09T00:46:37;101336.38;;;12.96;33.66
22000;BME280;11164;48.818;2.322;2023-04-09T00:49:02;101334.97;;;13.06;33.55
22000;BME280;11164;48.818;2.322;2023-04-09T00:51:28;101337.66;;;13.00;33.71
22000;BME280;11164;48.818;2.322;2023-04-09T00:53:54;101330.94;;;12.96;33.33
22000;BME280;11164;48.818;2.322;2023-04-09T00:56:20;101328.25;;;12.74;33.84
22000;BME280;11164;48.818;2.322;2023-04-09T00:58:46;101337.66;;;12.78;33.69
22000;BME280;11164;48.818;2.322;2023-04-09T01:01:12;101339.47;;;12.71;33.98
22000;BME280;11164;48.818;2.322;2023-04-09T01:03:37;101333.94;;;12.79;33.95
22000;BME280;11164;48.818;2.322;2023-04-09T01:09:04;101333.47;;;12.97;33.69
22000;BME280;11164;48.818;2.322;2023-04-09T01:11:42;101324.13;;;13.00;33.91
22000;BME280;11164;48.818;2.322;2023-04-09T01:16:52;101326.63;;;12.80;34.15
22000;BME280;11164;48.818;2.322;2023-04-09T01:19:33;101315.44;;;12.83;33.69
22000;BME280;11164;48.818;2.322;2023-04-09T01:22:08;101322.13;;;12.87;33.79
22000;BME280;11164;48.818;2.322;2023-04-09T01:24:46;101325.94;;;12.71;34.15
22000;BME280;11164;48.818;2.322;2023-04-09T01:27:17;101321.16;;;12.73;34.02
22000;BME280;11164;48.818;2.322;2023-04-09T01:29:49;101320.34;;;12.72;34.16
22000;BME280;11164;48.818;2.322;2023-04-09T01:32:17;101326.72;;;12.65;34.12
22000;BME280;11164;48.818;2.322;2023-04-09T01:34:45;101317.75;;;12.64;34.19
22000;BME280;11164;48.818;2.322;2023-04-09T01:37:12;101320.13;;;12.74;34.06
22000;BME280;11164;48.818;2.322;2023-04-09T01:39:39;101317.78;;;12.86;33.88
22000;BME280;11164;48.818;2.322;2023-04-09T01:42:05;101316.53;;;12.88;33.79
22000;BME280;11164;48.818;2.322;2023-04-09T01:44:37;101310.47;;;12.86;34.05
22000;BME280;11164;48.818;2.322;2023-04-09T01:47:03;101305.50;;;12.90;33.89
22000;BME280;11164;48.818;2.322;2023-04-09T01:49:29;101317.31;;;12.82;34.05
22000;BME280;11164;48.818;2.322;2023-04-09T01:51:55;101313.63;;;12.90;34.00
22000;BME280;11164;48.818;2.322;2023-04-09T01:54:20;101316.72;;;12.87;34.19
22000;BME280;11164;48.818;2.322;2023-04-09T01:56:47;101297.88;;;12.79;34.21
22000;BME280;11164;48.818;2.322;2023-04-09T01:59:13;101303.81;;;12.89;34.04
22000;BME280;11164;48.818;2.322;2023-04-09T02:01:44;101302.81;;;12.90;34.17
22000;BME280;11164;48.818;2.322;2023-04-09T02:04:30;101301.84;;;12.76;34.40
22000;BME280;11164;48.818;2.322;2023-04-09T02:09:42;101298.31;;;12.75;34.43
22000;BME280;11164;48.818;2.322;2023-04-09T02:12:12;101300.56;;;12.72;34.38
22000;BME280;11164;48.818;2.322;2023-04-09T02:14:39;101294.09;;;12.73;34.35
22000;BME280;11164;48.818;2.322;2023-04-09T02:17:05;101278.66;;;12.67;34.16
22000;BME280;11164;48.818;2.322;2023-04-09T02:19:45;101298.69;;;12.72;35.11
22000;BME280;11164;48.818;2.322;2023-04-09T02:22:11;101297.34;;;12.62;34.59
22000;BME280;11164;48.818;2.322;2023-04-09T02:24:37;101290.38;;;12.52;34.73
22000;BME280;11164;48.818;2.322;2023-04-09T02:27:03;101284.22;;;12.59;34.44
22000;BME280;11164;48.818;2.322;2023-04-09T02:29:29;101279.88;;;12.64;34.63
22000;BME280;11164;48.818;2.322;2023-04-09T02:31:54;101282.97;;;12.61;34.57
22000;BME280;11164;48.818;2.322;2023-04-09T02:34:20;101276.53;;;12.62;34.40
22000;BME280;11164;48.818;2.322;2023-04-09T02:36:45;101275.72;;;12.62;34.56
22000;BME280;11164;48.818;2.322;2023-04-09T02:39:14;101280.50;;;12.60;34.53
22000;BME280;11164;48.818;2.322;2023-04-09T02:41:39;101275.66;;;12.55;34.47
22000;BME280;11164;48.818;2.322;2023-04-09T02:44:04;101279.97;;;12.49;34.86
22000;BME280;11164;48.818;2.322;2023-04-09T02:46:30;101277.16;;;12.36;35.16
22000;BME280;11164;48.818;2.322;2023-04-09T02:48:55;101266.66;;;12.48;34.84
22000;BME280;11164;48.818;2.322;2023-04-09T02:51:20;101270.25;;;12.55;34.76
22000;BME280;11164;48.818;2.322;2023-04-09T02:53:46;101264.44;;;12.58;34.67
22000;BME280;11164;48.818;2.322;2023-04-09T02:56:11;101268.66;;;12.67;34.55
22000;BME280;11164;48.818;2.322;2023-04-09T02:58:36;101268.28;;;12.70;34.51
22000;BME280;11164;48.818;2.322;2023-04-09T03:01:02;101269.38;;;12.76;34.46
22000;BME280;11164;48.818;2.322;2023-04-09T03:03:27;101261.44;;;12.74;34.47
22000;BME280;11164;48.818;2.322;2023-04-09T03:05:53;101255.84;;;12.76;34.52
22000;BME280;11164;48.818;2.322;2023-04-09T03:08:18;101262.03;;;12.70;34.58
22000;BME280;11164;48.818;2.322;2023-04-09T03:10:44;101261.19;;;12.69;34.54
22000;BME280;11164;48.818;2.322;2023-04-09T03:13:09;101248.84;;;12.60;34.79
22000;BME280;11164;48.818;2.322;2023-04-09T03:15:34;101256.47;;;12.50;35.06
22000;BME280;11164;48.818;2.322;2023-04-09T03:18:00;101258.63;;;12.61;34.87
22000;BME280;11164;48.818;2.322;2023-04-09T03:20:25;101248.72;;;12.68;34.75
22000;BME280;11164;48.818;2.322;2023-04-09T03:22:50;101250.13;;;12.64;34.50
22000;BME280;11164;48.818;2.322;2023-04-09T03:25:16;101255.44;;;12.51;35.12
22000;BME280;11164;48.818;2.322;2023-04-09T03:27:43;101253.81;;;12.35;35.09
22000;BME280;11164;48.818;2.322;2023-04-09T03:30:09;101244.91;;;12.13;35.45
22000;BME280;11164;48.818;2.322;2023-04-09T03:32:35;101251.59;;;12.17;35.59
22000;BME280;11164;48.818;2.322;2023-04-09T03:35:00;101254.94;;;12.19;35.57
22000;BME280;11164;48.818;2.322;2023-04-09T03:37:26;101248.16;;;12.30;35.29
22000;BME280;11164;48.818;2.322;2023-04-09T03:39:51;101243.44;;;12.38;35.21
22000;BME280;11164;48.818;2.322;2023-04-09T03:42:16;101242.66;;;12.16;35.60
22000;BME280;11164;48.818;2.322;2023-04-09T03:44:41;101246.19;;;11.95;35.85
22000;BME280;11164;48.818;2.322;2023-04-09T03:47:07;101246.56;;;11.92;35.75
22000;BME280;11164;48.818;2.322;2023-04-09T03:49:34;101244.31;;;11.96;35.73
22000;BME280;11164;48.818;2.322;2023-04-09T03:52:00;101230.34;;;11.92;35.72
22000;BME280;11164;48.818;2.322;2023-04-09T03:54:28;101238.19;;;11.87;35.91
22000;BME280;11164;48.818;2.322;2023-04-09T03:56:53;101234.19;;;11.83;35.80
22000;BME280;11164;48.818;2.322;2023-04-09T03:59:19;101237.75;;;11.84;35.87
22000;BME280;11164;48.818;2.322;2023-04-09T04:01:44;101231.97;;;11.72;36.13
22000;BME280;11164;48.818;2.322;2023-04-09T04:04:09;101241.00;;;11.79;35.88
22000;BME280;11164;48.818;2.322;2023-04-09T04:06:35;101233.81;;;11.86;35.89
22000;BME280;11164;48.818;2.322;2023-04-09T04:09:01;101230.66;;;11.82;36.09
22000;BME280;11164;48.818;2.322;2023-04-09T04:11:26;101226.59;;;11.93;35.62
22000;BME280;11164;48.818;2.322;2023-04-09T04:13:51;101228.56;;;11.99;35.50
22000;BME280;11164;48.818;2.322;2023-04-09T04:16:17;101232.72;;;12.02;35.79
22000;BME280;11164;48.818;2.322;2023-04-09T04:18:42;101222.63;;;12.11;35.48
22000;BME280;11164;48.818;2.322;2023-04-09T04:21:14;101223.72;;;12.16;35.50
22000;BME280;11164;48.818;2.322;2023-04-09T04:23:39;101221.28;;;12.22;35.28
22000;BME280;11164;48.818;2.322;2023-04-09T04:26:10;101222.34;;;12.06;35.78
22000;BME280;11164;48.818;2.322;2023-04-09T04:28:37;101229.19;;;12.02;35.96
22000;BME280;11164;48.818;2.322;2023-04-09T04:31:06;101226.78;;;11.92;36.11
22000;BME280;11164;48.818;2.322;2023-04-09T04:33:32;101232.94;;;12.00;35.84
22000;BME280;11164;48.818;2.322;2023-04-09T04:36:09;101236.78;;;11.91;36.52
22000;BME280;11164;48.818;2.322;2023-04-09T04:38:34;101233.56;;;12.03;35.79
22000;BME280;11164;48.818;2.322;2023-04-09T04:41:00;101240.91;;;12.09;35.72
22000;BME280;11164;48.818;2.322;2023-04-09T04:43:26;101244.06;;;12.12;36.10
22000;BME280;11164;48.818;2.322;2023-04-09T04:45:51;101231.19;;;12.14;35.82
22000;BME280;11164;48.818;2.322;2023-04-09T04:48:16;101235.81;;;12.21;35.65
22000;BME280;11164;48.818;2.322;2023-04-09T04:50:42;101238.31;;;12.22;35.67
22000;BME280;11164;48.818;2.322;2023-04-09T04:53:07;101244.13;;;12.19;35.65
22000;BME280;11164;48.818;2.322;2023-04-09T04:55:36;101244.06;;;12.12;35.75
22000;BME280;11164;48.818;2.322;2023-04-09T04:58:03;101245.53;;;11.93;35.93
22000;BME280;11164;48.818;2.322;2023-04-09T05:00:29;101238.94;;;11.81;36.05
22000;BME280;11164;48.818;2.322;2023-04-09T05:02:54;101249.13;;;11.64;36.30
22000;BME280;11164;48.818;2.322;2023-04-09T05:05:19;101243.34;;;11.67;36.18
22000;BME280;11164;48.818;2.322;2023-04-09T05:07:45;101252.19;;;11.76;36.13
22000;BME280;11164;48.818;2.322;2023-04-09T05:10:10;101249.63;;;11.74;36.17
22000;BME280;11164;48.818;2.322;2023-04-09T05:12:35;101248.91;;;11.66;36.35
22000;BME280;11164;48.818;2.322;2023-04-09T05:15:01;101253.13;;;11.68;36.29
22000;BME280;11164;48.818;2.322;2023-04-09T05:17:26;101254.78;;;11.69;36.22
22000;BME280;11164;48.818;2.322;2023-04-09T05:19:52;101253.94;;;11.69;36.24
22000;BME280;11164;48.818;2.322;2023-04-09T05:22:18;101255.19;;;11.66;36.18
22000;BME280;11164;48.818;2.322;2023-04-09T05:24:43;101257.59;;;11.76;36.25
22000;BME280;11164;48.818;2.322;2023-04-09T05:27:08;101255.94;;;11.75;36.19
22000;BME280;11164;48.818;2.322;2023-04-09T05:29:33;101260.19;;;11.69;36.22
22000;BME280;11164;48.818;2.322;2023-04-09T05:31:59;101265.22;;;11.72;36.37
22000;BME280;11164;48.818;2.322;2023-04-09T05:34:24;101261.00;;;11.85;35.90
22000;BME280;11164;48.818;2.322;2023-04-09T05:36:51;101262.19;;;11.97;35.79
22000;BME280;11164;48.818;2.322;2023-04-09T05:39:16;101261.53;;;11.95;35.91
22000;BME280;11164;48.818;2.322;2023-04-09T05:41:41;101262.66;;;12.00;35.95
22000;BME280;11164;48.818;2.322;2023-04-09T05:44:09;101273.50;;;11.86;36.37
22000;BME280;11164;48.818;2.322;2023-04-09T05:46:35;101260.69;;;12.09;36.03
22000;BME280;11164;48.818;2.322;2023-04-09T05:49:00;101269.06;;;12.14;35.96
22000;BME280;11164;48.818;2.322;2023-04-09T05:51:26;101270.06;;;12.13;35.97
22000;BME280;11164;48.818;2.322;2023-04-09T05:53:51;101270.63;;;12.09;36.05
22000;BME280;11164;48.818;2.322;2023-04-09T05:56:16;101270.38;;;12.04;36.29
22000;BME280;11164;48.818;2.322;2023-04-09T05:58:45;101272.25;;;12.03;36.30
22000;BME280;11164;48.818;2.322;2023-04-09T06:01:10;101270.50;;;12.17;35.99
22000;BME280;11164;48.818;2.322;2023-04-09T06:03:35;101273.41;;;12.37;35.86
22000;BME280;11164;48.818;2.322;2023-04-09T06:06:01;101277.41;;;12.41;35.95
22000;BME280;11164;48.818;2.322;2023-04-09T06:08:26;101277.19;;;12.21;36.13
22000;BME280;11164;48.818;2.322;2023-04-09T06:10:51;101287.19;;;12.21;36.42
22000;BME280;11164;48.818;2.322;2023-04-09T06:13:16;101286.47;;;12.33;36.24
22000;BME280;11164;48.818;2.322;2023-04-09T06:15:42;101275.06;;;12.38;36.34
22000;BME280;11164;48.818;2.322;2023-04-09T06:18:07;101270.56;;;12.45;35.98
22000;BME280;11164;48.818;2.322;2023-04-09T06:20:32;101285.72;;;12.68;35.75
22000;BME280;11164;48.818;2.322;2023-04-09T06:22:58;101279.91;;;12.92;35.63
22000;BME280;11164;48.818;2.322;2023-04-09T06:25:23;101291.75;;;13.20;35.50
22000;BME280;11164;48.818;2.322;2023-04-09T06:27:48;101285.75;;;13.24;35.34
22000;BME280;11164;48.818;2.322;2023-04-09T06:30:14;101288.66;;;13.23;35.50
22000;BME280;11164;48.818;2.322;2023-04-09T06:32:39;101280.78;;;13.28;35.34
22000;BME280;11164;48.818;2.322;2023-04-09T06:35:05;101288.50;;;13.31;35.50
22000;BME280;11164;48.818;2.322;2023-04-09T06:37:32;101276.66;;;13.39;35.60
22000;BME280;11164;48.818;2.322;2023-04-09T06:39:58;101281.53;;;13.57;35.41
22000;BME280;11164;48.818;2.322;2023-04-09T06:42:23;101288.25;;;13.67;35.22
22000;BME280;11164;48.818;2.322;2023-04-09T06:44:48;101276.28;;;13.90;35.13
22000;BME280;11164;48.818;2.322;2023-04-09T06:47:14;101283.22;;;14.19;34.80
22000;BME280;11164;48.818;2.322;2023-04-09T06:49:40;101273.44;;;14.45;34.47
22000;BME280;11164;48.818;2.322;2023-04-09T06:52:05;101283.88;;;14.61;34.39
22000;BME280;11164;48.818;2.322;2023-04-09T06:54:31;101289.72;;;14.65;34.39
22000;BME280;11164;48.818;2.322;2023-04-09T06:56:56;101281.16;;;14.48;34.91
22000;BME280;11164;48.818;2.322;2023-04-09T06:59:22;101285.31;;;14.64;34.91
22000;BME280;11164;48.818;2.322;2023-04-09T07:01:47;101283.03;;;14.81;34.75
22000;BME280;11164;48.818;2.322;2023-04-09T07:04:13;101293.72;;;14.96;34.71
22000;BME280;11164;48.818;2.322;2023-04-09T07:06:38;101281.78;;;15.10;34.54
22000;BME280;11164;48.818;2.322;2023-04-09T07:09:04;101284.69;;;15.09;34.66
22000;BME280;11164;48.818;2.322;2023-04-09T07:11:30;101283.22;;;15.13;34.53
22000;BME280;11164;48.818;2.322;2023-04-09T07:13:55;101293.47;;;15.11;34.87
22000;BME280;11164;48.818;2.322;2023-04-09T07:16:21;101289.84;;;15.30;34.59
22000;BME280;11164;48.818;2.322;2023-04-09T07:18:46;101285.06;;;15.32;34.68
22000;BME280;11164;48.818;2.322;2023-04-09T07:21:11;101288.13;;;15.49;34.41
22000;BME280;11164;48.818;2.322;2023-04-09T07:23:36;101286.00;;;15.58;34.35
22000;BME280;11164;48.818;2.322;2023-04-09T07:26:03;101286.56;;;15.80;34.19
22000;BME280;11164;48.818;2.322;2023-04-09T07:28:29;101296.84;;;15.78;34.37
22000;BME280;11164;48.818;2.322;2023-04-09T07:30:54;101288.41;;;15.93;34.25
22000;BME280;11164;48.818;2.322;2023-04-09T07:33:20;101286.66;;;16.05;33.94
22000;BME280;11164;48.818;2.322;2023-04-09T07:35:45;101286.09;;;15.97;34.09
22000;BME280;11164;48.818;2.322;2023-04-09T07:38:11;101285.59;;;16.06;33.88
22000;BME280;11164;48.818;2.322;2023-04-09T07:40:36;101287.63;;;16.18;34.09
22000;BME280;11164;48.818;2.322;2023-04-09T07:43:02;101292.66;;;16.46;33.48
22000;BME280;11164;48.818;2.322;2023-04-09T07:45:27;101292.38;;;16.54;33.37
22000;BME280;11164;48.818;2.322;2023-04-09T07:47:53;101292.47;;;16.73;33.36
22000;BME280;11164;48.818;2.322;2023-04-09T07:50:18;101292.28;;;16.93;33.27
22000;BME280;11164;48.818;2.322;2023-04-09T07:52:43;101291.84;;;16.71;33.49
22000;BME280;11164;48.818;2.322;2023-04-09T07:55:08;101294.53;;;16.77;33.52
22000;BME280;11164;48.818;2.322;2023-04-09T07:57:34;101293.38;;;16.66;33.64
22000;BME280;11164;48.818;2.322;2023-04-09T07:59:59;101288.97;;;16.59;33.78
22000;BME280;11164;48.818;2.322;2023-04-09T08:02:25;101295.81;;;16.75;33.40
22000;BME280;11164;48.818;2.322;2023-04-09T08:04:51;101289.34;;;16.94;33.06
22000;BME280;11164;48.818;2.322;2023-04-09T08:07:16;101290.19;;;16.95;33.20
22000;BME280;11164;48.818;2.322;2023-04-09T08:09:41;101288.16;;;17.09;33.13
22000;BME280;11164;48.818;2.322;2023-04-09T08:12:07;101292.94;;;17.13;33.00
22000;BME280;11164;48.818;2.322;2023-04-09T08:14:32;101282.41;;;17.17;32.94
22000;BME280;11164;48.818;2.322;2023-04-09T08:16:58;101292.13;;;17.50;32.29
22000;BME280;11164;48.818;2.322;2023-04-09T08:19:24;101289.50;;;17.18;32.76
22000;BME280;11164;48.818;2.322;2023-04-09T08:21:50;101294.50;;;17.21;32.92
22000;BME280;11164;48.818;2.322;2023-04-09T08:24:16;101299.16;;;17.39;32.58
22000;BME280;11164;48.818;2.322;2023-04-09T08:26:42;101289.72;;;17.60;32.53
22000;BME280;11164;48.818;2.322;2023-04-09T08:29:09;101299.91;;;17.28;32.89
22000;BME280;11164;48.818;2.322;2023-04-09T08:31:35;101285.97;;;17.36;32.84
22000;BME280;11164;48.818;2.322;2023-04-09T08:34:01;101282.69;;;17.45;32.55
22000;BME280;11164;48.818;2.322;2023-04-09T08:36:26;101289.38;;;17.68;32.48
22000;BME280;11164;48.818;2.322;2023-04-09T08:38:52;101281.47;;;17.78;32.31
22000;BME280;11164;48.818;2.322;2023-04-09T08:41:24;101276.97;;;17.54;32.74
22000;BME280;11164;48.818;2.322;2023-04-09T08:43:51;101284.22;;;17.78;32.13
22000;BME280;11164;48.818;2.322;2023-04-09T08:46:20;101285.06;;;18.09;31.80
22000;BME280;11164;48.818;2.322;2023-04-09T08:48:47;101283.16;;;18.40;31.82
22000;BME280;11164;48.818;2.322;2023-04-09T08:51:17;101284.56;;;18.31;31.71
22000;BME280;11164;48.818;2.322;2023-04-09T08:53:57;101280.22;;;18.23;30.68
22000;BME280;11164;48.818;2.322;2023-04-09T08:56:23;101276.13;;;18.32;31.68
22000;BME280;11164;48.818;2.322;2023-04-09T08:58:50;101273.13;;;18.22;32.19
22000;BME280;11164;48.818;2.322;2023-04-09T09:01:25;101271.28;;;18.58;31.38
22000;BME280;11164;48.818;2.322;2023-04-09T09:04:02;101266.69;;;18.82;31.30
22000;BME280;11164;48.818;2.322;2023-04-09T09:06:46;101258.72;;;19.04;29.80
22000;BME280;11164;48.818;2.322;2023-04-09T09:09:13;101255.63;;;19.01;31.06
22000;BME280;11164;48.818;2.322;2023-04-09T09:11:41;101258.28;;;19.07;30.88
22000;BME280;11164;48.818;2.322;2023-04-09T09:14:08;101252.75;;;19.19;30.64
22000;BME280;11164;48.818;2.322;2023-04-09T09:16:36;101258.13;;;19.02;30.81
22000;BME280;11164;48.818;2.322;2023-04-09T09:19:07;101256.09;;;18.98;31.07
22000;BME280;11164;48.818;2.322;2023-04-09T09:21:32;101264.41;;;19.03;31.10
22000;BME280;11164;48.818;2.322;2023-04-09T09:23:58;101266.63;;;19.41;30.60
22000;BME280;11164;48.818;2.322;2023-04-09T09:26:25;101263.41;;;19.56;30.50
22000;BME280;11164;48.818;2.322;2023-04-09T09:28:52;101264.47;;;19.96;29.88
22000;BME280;11164;48.818;2.322;2023-04-09T09:31:19;101262.06;;;19.99;30.13
22000;BME280;11164;48.818;2.322;2023-04-09T09:33:45;101260.16;;;20.00;29.66
22000;BME280;11164;48.818;2.322;2023-04-09T09:36:12;101251.13;;;20.16;29.63
22000;BME280;11164;48.818;2.322;2023-04-09T09:38:54;101252.13;;;19.81;27.65
22000;BME280;11164;48.818;2.322;2023-04-09T09:41:20;101242.19;;;19.63;30.14
22000;BME280;11164;48.818;2.322;2023-04-09T09:43:46;101238.50;;;19.98;29.54
22000;BME280;11164;48.818;2.322;2023-04-09T09:46:11;101243.59;;;20.23;29.27
22000;BME280;11164;48.818;2.322;2023-04-09T09:48:37;101238.94;;;20.58;28.89
22000;BME280;11164;48.818;2.322;2023-04-09T09:51:10;101245.19;;;20.53;28.50
22000;BME280;11164;48.818;2.322;2023-04-09T09:53:37;101236.28;;;20.12;29.03
22000;BME280;11164;48.818;2.322;2023-04-09T09:56:04;101238.53;;;20.15;29.27
22000;BME280;11164;48.818;2.322;2023-04-09T09:58:40;101240.00;;;20.23;28.15
22000;BME280;11164;48.818;2.322;2023-04-09T10:01:12;101242.59;;;20.30;28.73
22000;BME280;11164;48.818;2.322;2023-04-09T10:03:39;101244.50;;;20.29;28.90
22000;BME280;11164;48.818;2.322;2023-04-09T10:06:08;101234.63;;;20.28;28.97
22000;BME280;11164;48.818;2.322;2023-04-09T10:08:35;101232.97;;;20.10;29.04
22000;BME280;11164;48.818;2.322;2023-04-09T10:11:02;101237.44;;;20.33;28.60
22000;BME280;11164;48.818;2.322;2023-04-09T10:13:42;101233.06;;;20.66;26.97
22000;BME280;11164;48.818;2.322;2023-04-09T10:16:10;101240.47;;;20.66;28.06
22000;BME280;11164;48.818;2.322;2023-04-09T10:18:37;101232.66;;;20.57;28.16
22000;BME280;11164;48.818;2.322;2023-04-09T10:23:39;101233.25;;;20.98;27.45
22000;BME280;11164;48.818;2.322;2023-04-09T10:26:06;101223.53;;;20.91;27.56
22000;BME280;11164;48.818;2.322;2023-04-09T10:28:32;101227.34;;;20.68;27.65
22000;BME280;11164;48.818;2.322;2023-04-09T10:30:57;101219.28;;;20.10;28.21
22000;BME280;11164;48.818;2.322;2023-04-09T10:33:25;101229.63;;;20.42;27.87
22000;BME280;11164;48.818;2.322;2023-04-09T10:35:53;101229.66;;;20.59;27.62
22000;BME280;11164;48.818;2.322;2023-04-09T10:38:36;101224.25;;;20.81;25.82
22000;BME280;11164;48.818;2.322;2023-04-09T10:41:29;101222.25;;;21.15;24.66
22000;BME280;11164;48.818;2.322;2023-04-09T10:43:56;101209.22;;;21.50;26.30
22000;BME280;11164;48.818;2.322;2023-04-09T10:46:27;101214.63;;;21.00;26.51
22000;BME280;11164;48.818;2.322;2023-04-09T10:49:12;101223.78;;;20.67;25.30
22000;BME280;11164;48.818;2.322;2023-04-09T10:51:39;101210.38;;;20.88;27.00
22000;BME280;11164;48.818;2.322;2023-04-09T10:59:34;101203.94;;;21.43;26.12
22000;BME280;11164;48.818;2.322;2023-04-09T11:01:59;101196.66;;;21.54;26.18
22000;BME280;11164;48.818;2.322;2023-04-09T11:04:34;101209.09;;;21.40;23.23
22000;BME280;11164;48.818;2.322;2023-04-09T11:07:04;101205.94;;;21.26;26.00
22000;BME280;11164;48.818;2.322;2023-04-09T11:09:33;101210.47;;;20.42;26.24
22000;BME280;11164;48.818;2.322;2023-04-09T11:11:59;101207.59;;;20.15;26.77
22000;BME280;11164;48.818;2.322;2023-04-09T11:14:24;101208.13;;;20.51;26.25
22000;BME280;11164;48.818;2.322;2023-04-09T11:16:50;101206.03;;;21.14;25.89
22000;BME280;11164;48.818;2.322;2023-04-09T11:19:16;101202.13;;;21.10;25.89
22000;BME280;11164;48.818;2.322;2023-04-09T11:21:41;101207.03;;;20.86;26.00
22000;BME280;11164;48.818;2.322;2023-04-09T11:24:11;101208.22;;;20.39;26.34
22000;BME280;11164;48.818;2.322;2023-04-09T11:26:36;101190.66;;;20.01;26.70
22000;BME280;11164;48.818;2.322;2023-04-09T11:29:06;101188.59;;;20.08;26.46
22000;BME280;11164;48.818;2.322;2023-04-09T11:31:32;101183.34;;;19.90;26.63
22000;BME280;11164;48.818;2.322;2023-04-09T11:33:58;101174.31;;;19.77;26.28
22000;BME280;11164;48.818;2.322;2023-04-09T11:36:23;101186.81;;;20.02;26.11
22000;BME280;11164;48.818;2.322;2023-04-09T11:38:48;101179.28;;;20.26;25.66
22000;BME280;11164;48.818;2.322;2023-04-09T11:41:15;101174.00;;;20.75;25.38
22000;BME280;11164;48.818;2.322;2023-04-09T11:43:40;101179.50;;;20.97;25.29
22000;BME280;11164;48.818;2.322;2023-04-09T11:46:06;101183.00;;;20.93;25.18
22000;BME280;11164;48.818;2.322;2023-04-09T11:48:32;101174.03;;;20.97;25.44
22000;BME280;11164;48.818;2.322;2023-04-09T11:50:58;101181.38;;;21.14;25.29
22000;BME280;11164;48.818;2.322;2023-04-09T11:53:29;101185.69;;;21.10;24.79
22000;BME280;11164;48.818;2.322;2023-04-09T11:55:55;101174.44;;;21.28;25.12
22000;BME280;11164;48.818;2.322;2023-04-09T11:58:21;101177.88;;;20.96;25.14
22000;BME280;11164;48.818;2.322;2023-04-09T12:00:47;101177.75;;;20.69;25.41
22000;BME280;11164;48.818;2.322;2023-04-09T12:03:13;101185.34;;;20.62;25.30
22000;BME280;11164;48.818;2.322;2023-04-09T12:05:44;101190.38;;;20.53;24.98
22000;BME280;11164;48.818;2.322;2023-04-09T12:08:11;101198.31;;;21.11;24.59
22000;BME280;11164;48.818;2.322;2023-04-09T12:10:37;101179.47;;;21.64;24.51
22000;BME280;11164;48.818;2.322;2023-04-09T12:13:07;101173.31;;;21.51;22.90
22000;BME280;11164;48.818;2.322;2023-04-09T12:15:36;101176.72;;;21.36;25.00
22000;BME280;11164;48.818;2.322;2023-04-09T12:18:03;101178.94;;;21.67;24.34
22000;BME280;11164;48.818;2.322;2023-04-09T12:20:35;101175.88;;;21.14;24.83
22000;BME280;11164;48.818;2.322;2023-04-09T12:23:02;101173.59;;;21.06;24.85
22000;BME280;11164;48.818;2.322;2023-04-09T12:25:40;101174.78;;;20.71;23.42
22000;BME280;11164;48.818;2.322;2023-04-09T12:28:07;101170.19;;;20.76;25.13
22000;BME280;11164;48.818;2.322;2023-04-09T12:30:33;101162.81;;;20.99;24.69
22000;BME280;11164;48.818;2.322;2023-04-09T12:32:59;101161.84;;;21.32;24.29
22000;BME280;11164;48.818;2.322;2023-04-09T12:35:25;101157.16;;;21.28;24.15
22000;BME280;11164;48.818;2.322;2023-04-09T12:37:51;101155.53;;;21.10;24.21
22000;BME280;11164;48.818;2.322;2023-04-09T12:40:17;101155.47;;;21.05;24.00
22000;BME280;11164;48.818;2.322;2023-04-09T12:42:44;101156.31;;;21.05;24.20
22000;BME280;11164;48.818;2.322;2023-04-09T12:45:14;101151.44;;;20.90;24.47
22000;BME280;11164;48.818;2.322;2023-04-09T12:47:40;101145.81;;;21.73;23.57
22000;BME280;11164;48.818;2.322;2023-04-09T12:50:07;101144.25;;;22.53;22.51
22000;BME280;11164;48.818;2.322;2023-04-09T12:52:33;101136.44;;;23.96;21.27
22000;BME280;11164;48.818;2.322;2023-04-09T12:55:01;101134.84;;;25.52;19.85
22000;BME280;11164;48.818;2.322;2023-04-09T12:57:27;101131.84;;;25.82;19.94
22000;BME280;11164;48.818;2.322;2023-04-09T12:59:53;101130.19;;;25.87;19.82
22000;BME280;11164;48.818;2.322;2023-04-09T13:02:19;101123.88;;;26.64;19.24
22000;BME280;11164;48.818;2.322;2023-04-09T13:04:45;101129.28;;;26.20;20.05